sensor_id;sensor_type;location;lat;lon;timestamp;temperature;humidity
997;DHT22;487;50.126;8.698;2023-12-07T00:00:33;4.80;99.90
997;DHT22;487;50.126;8.698;2023-12-07T00:03:01;4.80;99.90
997;DHT22;487;50.126;8.698;2023-12-07T00:05:29;4.70;99.90
997;DHT22;487;50.126;8.698;2023-12-07T00:07:58;4.80;99.90
997;DHT22;487;50.126;8.698;2023-12-07T00:10:26;4.70;99.90
997;DHT22;487;50.126;8.698;2023-12-07T00:12:54;4.70;99.90
997;DHT22;487;50.126;8.698;2023-12-07T00:15:22;4.80;99.90
997;DHT22;487;50.126;8.698;2023-12-07T00:17:49;4.80;99.90
997;DHT22;487;50.126;8.698;2023-12-07T00:20:17;4.80;99.90
997;DHT22;487;50.126;8.698;2023-12-07T00:22:45;4.80;99.90
997;DHT22;487;50.126;8.698;2023-12-07T00:25:14;4.90;99.90
997;DHT22;487;50.126;8.698;2023-12-07T00:27:42;4.90;99.90
997;DHT22;487;50.126;8.698;2023-12-07T00:30:11;5.00;99.90
997;DHT22;487;50.126;8.698;2023-12-07T00:32:39;5.00;99.90
997;DHT22;487;50.126;8.698;2023-12-07T00:35:10;5.00;99.90
997;DHT22;487;50.126;8.698;2023-12-07T00:37:38;5.10;99.90
997;DHT22;487;50.126;8.698;2023-12-07T00:40:06;5.10;99.90
997;DHT22;487;50.126;8.698;2023-12-07T00:42:36;5.10;99.90
997;DHT22;487;50.126;8.698;2023-12-07T00:45:05;5.10;99.90
997;DHT22;487;50.126;8.698;2023-12-07T00:47:33;5.10;99.90
997;DHT22;487;50.126;8.698;2023-12-07T00:50:00;5.10;99.90
997;DHT22;487;50.126;8.698;2023-12-07T00:52:28;5.10;99.90
997;DHT22;487;50.126;8.698;2023-12-07T00:54:56;5.10;99.90
997;DHT22;487;50.126;8.698;2023-12-07T00:57:39;5.10;99.90
997;DHT22;487;50.126;8.698;2023-12-07T01:00:08;5.10;99.90
997;DHT22;487;50.126;8.698;2023-12-07T01:02:37;5.20;99.90
997;DHT22;487;50.126;8.698;2023-12-07T01:05:05;5.10;99.90
997;DHT22;487;50.126;8.698;2023-12-07T01:07:33;5.10;99.90
997;DHT22;487;50.126;8.698;2023-12-07T01:10:01;5.10;99.90
997;DHT22;487;50.126;8.698;2023-12-07T01:12:29;5.00;99.90
997;DHT22;487;50.126;8.698;2023-12-07T01:14:58;4.90;99.90
997;DHT22;487;50.126;8.698;2023-12-07T01:17:28;4.80;99.90
997;DHT22;487;50.126;8.698;2023-12-07T01:19:55;4.80;99.90
997;DHT22;487;50.126;8.698;2023-12-07T01:24:52;4.80;99.90
997;DHT22;487;50.126;8.698;2023-12-07T01:27:20;4.70;99.90
997;DHT22;487;50.126;8.698;2023-12-07T01:29:48;4.60;99.90
997;DHT22;487;50.126;8.698;2023-12-07T01:32:17;4.70;99.90
997;DHT22;487;50.126;8.698;2023-12-07T01:34:45;4.70;99.90
997;DHT22;487;50.126;8.698;2023-12-07T01:37:13;4.70;99.90
997;DHT22;487;50.126;8.698;2023-12-07T01:39:41;4.80;99.90
997;DHT22;487;50.126;8.698;2023-12-07T01:42:09;4.80;99.90
997;DHT22;487;50.126;8.698;2023-12-07T01:44:38;4.80;99.90
997;DHT22;487;50.126;8.698;2023-12-07T01:47:06;8.00;99.90
997;DHT22;487;50.126;8.698;2023-12-07T01:49:38;4.80;99.90
997;DHT22;487;50.126;8.698;2023-12-07T01:52:07;4.80;99.90
997;DHT22;487;50.126;8.698;2023-12-07T01:54:37;4.80;99.90
997;DHT22;487;50.126;8.698;2023-12-07T01:57:06;4.80;99.90
997;DHT22;487;50.126;8.698;2023-12-07T01:59:34;4.80;99.90
997;DHT22;487;50.126;8.698;2023-12-07T02:02:02;4.80;99.90
997;DHT22;487;50.126;8.698;2023-12-07T02:04:30;4.80;99.90
997;DHT22;487;50.126;8.698;2023-12-07T02:07:00;4.80;99.90
997;DHT22;487;50.126;8.698;2023-12-07T02:09:29;4.70;99.90
997;DHT22;487;50.126;8.698;2023-12-07T02:11:59;4.70;99.90
997;DHT22;487;50.126;8.698;2023-12-07T02:14:27;4.70;99.90
997;DHT22;487;50.126;8.698;2023-12-07T02:16:59;4.60;99.90
997;DHT22;487;50.126;8.698;2023-12-07T02:19:47;4.60;99.90
997;DHT22;487;50.126;8.698;2023-12-07T02:22:22;4.60;99.90
997;DHT22;487;50.126;8.698;2023-12-07T02:25:04;4.60;99.90
997;DHT22;487;50.126;8.698;2023-12-07T02:30:08;4.50;99.90
997;DHT22;487;50.126;8.698;2023-12-07T02:32:36;4.50;99.90
997;DHT22;487;50.126;8.698;2023-12-07T02:35:05;4.50;99.90
997;DHT22;487;50.126;8.698;2023-12-07T02:37:37;4.50;99.90
997;DHT22;487;50.126;8.698;2023-12-07T02:40:06;4.50;99.90
997;DHT22;487;50.126;8.698;2023-12-07T02:42:38;4.50;99.90
997;DHT22;487;50.126;8.698;2023-12-07T02:45:08;4.50;99.90
997;DHT22;487;50.126;8.698;2023-12-07T02:47:36;4.50;99.90
997;DHT22;487;50.126;8.698;2023-12-07T02:50:06;4.40;99.90
997;DHT22;487;50.126;8.698;2023-12-07T02:52:35;4.40;99.90
997;DHT22;487;50.126;8.698;2023-12-07T02:55:04;4.40;99.90
997;DHT22;487;50.126;8.698;2023-12-07T02:57:32;4.40;99.90
997;DHT22;487;50.126;8.698;2023-12-07T03:00:03;4.30;99.90
997;DHT22;487;50.126;8.698;2023-12-07T03:02:33;4.40;99.90
997;DHT22;487;50.126;8.698;2023-12-07T03:05:02;4.40;99.90
997;DHT22;487;50.126;8.698;2023-12-07T03:09:58;4.30;99.90
997;DHT22;487;50.126;8.698;2023-12-07T03:12:26;4.20;99.90
997;DHT22;487;50.126;8.698;2023-12-07T03:14:54;4.10;99.90
997;DHT22;487;50.126;8.698;2023-12-07T03:17:24;4.00;99.90
997;DHT22;487;50.126;8.698;2023-12-07T03:22:20;4.00;99.90
997;DHT22;487;50.126;8.698;2023-12-07T03:24:51;4.00;99.90
997;DHT22;487;50.126;8.698;2023-12-07T03:27:19;4.00;99.90
997;DHT22;487;50.126;8.698;2023-12-07T03:29:47;3.80;99.90
997;DHT22;487;50.126;8.698;2023-12-07T03:32:15;3.80;99.90
997;DHT22;487;50.126;8.698;2023-12-07T03:34:44;3.90;99.90
997;DHT22;487;50.126;8.698;2023-12-07T03:37:12;3.90;99.90
997;DHT22;487;50.126;8.698;2023-12-07T03:39:40;4.00;99.90
997;DHT22;487;50.126;8.698;2023-12-07T03:42:08;4.00;99.90
997;DHT22;487;50.126;8.698;2023-12-07T03:44:56;4.00;99.90
997;DHT22;487;50.126;8.698;2023-12-07T03:47:23;4.00;99.90
997;DHT22;487;50.126;8.698;2023-12-07T03:49:53;3.90;99.90
997;DHT22;487;50.126;8.698;2023-12-07T03:52:20;3.90;99.90
997;DHT22;487;50.126;8.698;2023-12-07T03:54:48;3.90;99.90
997;DHT22;487;50.126;8.698;2023-12-07T03:57:16;3.80;99.90
997;DHT22;487;50.126;8.698;2023-12-07T03:59:44;3.80;99.90
997;DHT22;487;50.126;8.698;2023-12-07T04:02:13;3.80;99.90
997;DHT22;487;50.126;8.698;2023-12-07T04:04:41;3.80;99.90
997;DHT22;487;50.126;8.698;2023-12-07T04:07:10;3.90;99.90
997;DHT22;487;50.126;8.698;2023-12-07T04:09:38;3.80;99.90
997;DHT22;487;50.126;8.698;2023-12-07T04:12:06;3.70;99.90
997;DHT22;487;50.126;8.698;2023-12-07T04:14:34;3.70;99.90
997;DHT22;487;50.126;8.698;2023-12-07T04:17:02;3.70;99.90
997;DHT22;487;50.126;8.698;2023-12-07T04:19:30;3.70;99.90
997;DHT22;487;50.126;8.698;2023-12-07T04:21:58;3.80;99.90
997;DHT22;487;50.126;8.698;2023-12-07T04:24:27;3.90;99.90
997;DHT22;487;50.126;8.698;2023-12-07T04:26:55;3.90;99.90
997;DHT22;487;50.126;8.698;2023-12-07T04:31:51;3.90;99.90
997;DHT22;487;50.126;8.698;2023-12-07T04:34:19;3.90;99.90
997;DHT22;487;50.126;8.698;2023-12-07T04:36:47;3.90;99.90
997;DHT22;487;50.126;8.698;2023-12-07T04:39:14;4.00;99.90
997;DHT22;487;50.126;8.698;2023-12-07T04:44:13;4.00;99.90
997;DHT22;487;50.126;8.698;2023-12-07T04:46:41;4.00;99.90
997;DHT22;487;50.126;8.698;2023-12-07T04:49:10;4.00;99.90
997;DHT22;487;50.126;8.698;2023-12-07T04:51:38;3.90;99.90
997;DHT22;487;50.126;8.698;2023-12-07T04:54:05;3.80;99.90
997;DHT22;487;50.126;8.698;2023-12-07T04:56:46;3.70;99.90
997;DHT22;487;50.126;8.698;2023-12-07T04:59:15;3.70;99.90
997;DHT22;487;50.126;8.698;2023-12-07T05:04:12;3.50;99.90
997;DHT22;487;50.126;8.698;2023-12-07T05:06:39;3.50;99.90
997;DHT22;487;50.126;8.698;2023-12-07T05:09:09;3.50;99.90
997;DHT22;487;50.126;8.698;2023-12-07T05:11:42;3.60;99.90
997;DHT22;487;50.126;8.698;2023-12-07T05:14:13;3.60;99.90
997;DHT22;487;50.126;8.698;2023-12-07T05:16:41;3.70;99.90
997;DHT22;487;50.126;8.698;2023-12-07T05:19:10;3.80;99.90
997;DHT22;487;50.126;8.698;2023-12-07T05:21:40;3.80;99.90
997;DHT22;487;50.126;8.698;2023-12-07T05:24:07;3.90;99.90
997;DHT22;487;50.126;8.698;2023-12-07T05:26:35;3.80;99.90
997;DHT22;487;50.126;8.698;2023-12-07T05:29:03;3.90;99.90
997;DHT22;487;50.126;8.698;2023-12-07T05:31:32;3.90;99.90
997;DHT22;487;50.126;8.698;2023-12-07T05:34:00;3.90;99.90
997;DHT22;487;50.126;8.698;2023-12-07T05:43:53;3.90;99.90
997;DHT22;487;50.126;8.698;2023-12-07T05:46:21;3.90;99.90
997;DHT22;487;50.126;8.698;2023-12-07T05:51:23;3.80;99.90
997;DHT22;487;50.126;8.698;2023-12-07T05:53:51;3.90;99.90
997;DHT22;487;50.126;8.698;2023-12-07T05:56:19;3.80;99.90
997;DHT22;487;50.126;8.698;2023-12-07T05:58:48;3.80;99.90
997;DHT22;487;50.126;8.698;2023-12-07T06:01:17;3.70;99.90
997;DHT22;487;50.126;8.698;2023-12-07T06:03:46;3.70;99.90
997;DHT22;487;50.126;8.698;2023-12-07T06:06:15;3.70;99.90
997;DHT22;487;50.126;8.698;2023-12-07T06:11:12;3.60;99.90
997;DHT22;487;50.126;8.698;2023-12-07T06:13:40;3.60;99.90
997;DHT22;487;50.126;8.698;2023-12-07T06:26:06;3.60;99.90
997;DHT22;487;50.126;8.698;2023-12-07T06:36:04;3.60;99.90
997;DHT22;487;50.126;8.698;2023-12-07T06:38:32;3.50;99.90
997;DHT22;487;50.126;8.698;2023-12-07T06:41:01;3.50;99.90
997;DHT22;487;50.126;8.698;2023-12-07T06:43:29;3.50;99.90
997;DHT22;487;50.126;8.698;2023-12-07T06:45:57;3.50;99.90
997;DHT22;487;50.126;8.698;2023-12-07T06:48:25;3.40;99.90
997;DHT22;487;50.126;8.698;2023-12-07T06:50:53;3.40;99.90
997;DHT22;487;50.126;8.698;2023-12-07T06:53:21;3.40;99.90
997;DHT22;487;50.126;8.698;2023-12-07T06:58:19;3.30;99.90
997;DHT22;487;50.126;8.698;2023-12-07T07:00:47;3.20;99.90
997;DHT22;487;50.126;8.698;2023-12-07T07:03:15;3.20;99.90
997;DHT22;487;50.126;8.698;2023-12-07T07:05:44;3.10;99.90
997;DHT22;487;50.126;8.698;2023-12-07T07:23:03;3.10;99.90
997;DHT22;487;50.126;8.698;2023-12-07T07:25:31;3.10;99.90
997;DHT22;487;50.126;8.698;2023-12-07T07:27:59;3.20;99.90
997;DHT22;487;50.126;8.698;2023-12-07T07:32:57;3.20;99.90
997;DHT22;487;50.126;8.698;2023-12-07T07:35:24;3.20;99.90
997;DHT22;487;50.126;8.698;2023-12-07T07:37:54;3.20;99.90
997;DHT22;487;50.126;8.698;2023-12-07T07:42:51;3.30;99.90
997;DHT22;487;50.126;8.698;2023-12-07T07:45:19;3.30;99.90
997;DHT22;487;50.126;8.698;2023-12-07T07:47:47;3.40;99.90
997;DHT22;487;50.126;8.698;2023-12-07T07:50:16;3.40;99.90
997;DHT22;487;50.126;8.698;2023-12-07T07:52:44;3.40;99.90
997;DHT22;487;50.126;8.698;2023-12-07T07:55:12;3.40;99.90
997;DHT22;487;50.126;8.698;2023-12-07T07:57:40;3.40;99.90
997;DHT22;487;50.126;8.698;2023-12-07T08:02:39;3.50;99.90
997;DHT22;487;50.126;8.698;2023-12-07T08:05:08;3.40;99.90
997;DHT22;487;50.126;8.698;2023-12-07T08:07:37;3.40;99.90
997;DHT22;487;50.126;8.698;2023-12-07T08:10:06;3.40;99.90
997;DHT22;487;50.126;8.698;2023-12-07T08:12:36;3.50;99.90
997;DHT22;487;50.126;8.698;2023-12-07T08:17:37;3.40;99.90
997;DHT22;487;50.126;8.698;2023-12-07T08:20:08;3.40;99.90
997;DHT22;487;50.126;8.698;2023-12-07T08:22:38;3.40;99.90
997;DHT22;487;50.126;8.698;2023-12-07T08:25:08;3.50;99.90
997;DHT22;487;50.126;8.698;2023-12-07T08:27:38;3.50;99.90
997;DHT22;487;50.126;8.698;2023-12-07T08:30:07;3.50;99.90
997;DHT22;487;50.126;8.698;2023-12-07T08:32:35;3.60;99.90
997;DHT22;487;50.126;8.698;2023-12-07T08:35:05;3.60;99.90
997;DHT22;487;50.126;8.698;2023-12-07T08:37:33;3.60;99.90
997;DHT22;487;50.126;8.698;2023-12-07T08:44:59;3.70;99.90
997;DHT22;487;50.126;8.698;2023-12-07T08:47:27;3.70;99.90
997;DHT22;487;50.126;8.698;2023-12-07T08:52:25;3.70;99.90
997;DHT22;487;50.126;8.698;2023-12-07T08:55:12;3.70;99.90
997;DHT22;487;50.126;8.698;2023-12-07T08:57:42;3.70;99.90
997;DHT22;487;50.126;8.698;2023-12-07T09:00:10;3.60;99.90
997;DHT22;487;50.126;8.698;2023-12-07T09:02:39;3.70;99.90
997;DHT22;487;50.126;8.698;2023-12-07T09:05:14;3.80;99.90
997;DHT22;487;50.126;8.698;2023-12-07T09:07:42;3.90;99.90
997;DHT22;487;50.126;8.698;2023-12-07T09:10:12;3.90;99.90
997;DHT22;487;50.126;8.698;2023-12-07T09:12:40;3.90;99.90
997;DHT22;487;50.126;8.698;2023-12-07T09:15:09;4.00;99.90
997;DHT22;487;50.126;8.698;2023-12-07T09:17:38;4.00;99.90
997;DHT22;487;50.126;8.698;2023-12-07T09:20:08;4.00;99.90
997;DHT22;487;50.126;8.698;2023-12-07T09:22:40;4.10;99.90
997;DHT22;487;50.126;8.698;2023-12-07T09:25:08;4.20;99.90
997;DHT22;487;50.126;8.698;2023-12-07T09:32:39;4.20;99.90
997;DHT22;487;50.126;8.698;2023-12-07T09:35:08;4.20;99.90
997;DHT22;487;50.126;8.698;2023-12-07T09:42:46;4.20;99.90
997;DHT22;487;50.126;8.698;2023-12-07T09:47:47;4.40;99.90
997;DHT22;487;50.126;8.698;2023-12-07T09:50:16;4.50;99.90
997;DHT22;487;50.126;8.698;2023-12-07T09:52:47;4.50;99.90
997;DHT22;487;50.126;8.698;2023-12-07T09:55:30;4.60;99.90
997;DHT22;487;50.126;8.698;2023-12-07T09:58:00;4.70;99.90
997;DHT22;487;50.126;8.698;2023-12-07T10:00:28;4.80;99.90
997;DHT22;487;50.126;8.698;2023-12-07T10:02:56;4.90;99.90
997;DHT22;487;50.126;8.698;2023-12-07T10:15:22;4.80;99.90
997;DHT22;487;50.126;8.698;2023-12-07T10:17:52;4.80;99.90
997;DHT22;487;50.126;8.698;2023-12-07T10:20:21;4.70;99.90
997;DHT22;487;50.126;8.698;2023-12-07T10:25:29;4.80;99.90
997;DHT22;487;50.126;8.698;2023-12-07T10:27:57;4.80;99.90
997;DHT22;487;50.126;8.698;2023-12-07T10:30:27;4.80;99.90
997;DHT22;487;50.126;8.698;2023-12-07T10:35:23;4.90;99.90
997;DHT22;487;50.126;8.698;2023-12-07T10:37:52;4.90;99.90
997;DHT22;487;50.126;8.698;2023-12-07T10:40:20;4.90;99.90
997;DHT22;487;50.126;8.698;2023-12-07T10:45:17;4.90;99.90
997;DHT22;487;50.126;8.698;2023-12-07T10:47:48;4.80;99.90
997;DHT22;487;50.126;8.698;2023-12-07T10:50:23;4.70;99.90
997;DHT22;487;50.126;8.698;2023-12-07T10:52:52;4.60;99.90
997;DHT22;487;50.126;8.698;2023-12-07T10:57:52;4.60;99.90
997;DHT22;487;50.126;8.698;2023-12-07T11:00:21;4.60;99.90
997;DHT22;487;50.126;8.698;2023-12-07T11:03:08;4.70;99.90
997;DHT22;487;50.126;8.698;2023-12-07T11:05:37;4.70;99.90
997;DHT22;487;50.126;8.698;2023-12-07T11:08:08;4.70;99.90
997;DHT22;487;50.126;8.698;2023-12-07T11:10:42;4.70;99.90
997;DHT22;487;50.126;8.698;2023-12-07T11:13:17;4.80;99.90
997;DHT22;487;50.126;8.698;2023-12-07T11:15:46;4.80;99.90
997;DHT22;487;50.126;8.698;2023-12-07T11:18:15;4.90;99.90
997;DHT22;487;50.126;8.698;2023-12-07T11:20:45;4.90;99.90
997;DHT22;487;50.126;8.698;2023-12-07T11:28:14;4.90;99.90
997;DHT22;487;50.126;8.698;2023-12-07T11:30:44;5.00;99.90
997;DHT22;487;50.126;8.698;2023-12-07T11:33:16;5.00;99.90
997;DHT22;487;50.126;8.698;2023-12-07T11:36:05;5.10;99.90
997;DHT22;487;50.126;8.698;2023-12-07T11:38:35;5.10;99.90
997;DHT22;487;50.126;8.698;2023-12-07T11:41:04;5.20;99.90
997;DHT22;487;50.126;8.698;2023-12-07T11:43:41;5.10;99.90
997;DHT22;487;50.126;8.698;2023-12-07T11:46:13;5.10;99.90
997;DHT22;487;50.126;8.698;2023-12-07T11:48:48;4.90;99.90
997;DHT22;487;50.126;8.698;2023-12-07T11:51:17;4.80;99.90
997;DHT22;487;50.126;8.698;2023-12-07T11:53:45;4.80;99.90
997;DHT22;487;50.126;8.698;2023-12-07T11:56:17;4.90;99.90
997;DHT22;487;50.126;8.698;2023-12-07T11:58:47;4.90;99.90
997;DHT22;487;50.126;8.698;2023-12-07T12:01:17;4.90;99.90
997;DHT22;487;50.126;8.698;2023-12-07T12:06:14;5.00;99.90
997;DHT22;487;50.126;8.698;2023-12-07T12:08:42;5.10;99.90
997;DHT22;487;50.126;8.698;2023-12-07T12:16:07;5.20;99.90
997;DHT22;487;50.126;8.698;2023-12-07T12:18:36;5.20;99.90
997;DHT22;487;50.126;8.698;2023-12-07T12:21:07;5.30;99.90
997;DHT22;487;50.126;8.698;2023-12-07T12:23:37;5.20;99.90
997;DHT22;487;50.126;8.698;2023-12-07T12:26:07;5.20;99.90
997;DHT22;487;50.126;8.698;2023-12-07T12:33:39;5.10;99.90
997;DHT22;487;50.126;8.698;2023-12-07T12:36:07;5.00;99.90
997;DHT22;487;50.126;8.698;2023-12-07T12:43:40;5.10;99.90
997;DHT22;487;50.126;8.698;2023-12-07T12:46:09;5.20;99.90
997;DHT22;487;50.126;8.698;2023-12-07T12:51:20;5.20;99.90
997;DHT22;487;50.126;8.698;2023-12-07T12:53:51;5.30;99.90
997;DHT22;487;50.126;8.698;2023-12-07T12:56:19;5.30;99.90
997;DHT22;487;50.126;8.698;2023-12-07T12:58:48;5.20;99.90
997;DHT22;487;50.126;8.698;2023-12-07T13:06:14;5.00;99.90
997;DHT22;487;50.126;8.698;2023-12-07T13:08:43;5.00;99.90
997;DHT22;487;50.126;8.698;2023-12-07T13:11:16;5.00;99.90
997;DHT22;487;50.126;8.698;2023-12-07T13:13:44;4.90;99.90
997;DHT22;487;50.126;8.698;2023-12-07T13:16:14;5.00;99.90
997;DHT22;487;50.126;8.698;2023-12-07T13:18:43;5.00;99.90
997;DHT22;487;50.126;8.698;2023-12-07T13:21:11;5.00;99.90
997;DHT22;487;50.126;8.698;2023-12-07T13:23:41;4.90;99.90
997;DHT22;487;50.126;8.698;2023-12-07T13:26:13;5.00;99.90
997;DHT22;487;50.126;8.698;2023-12-07T13:28:42;5.00;99.90
997;DHT22;487;50.126;8.698;2023-12-07T13:33:39;5.10;99.90
997;DHT22;487;50.126;8.698;2023-12-07T13:36:19;5.10;99.90
997;DHT22;487;50.126;8.698;2023-12-07T13:43:45;5.20;99.90
997;DHT22;487;50.126;8.698;2023-12-07T13:51:12;5.10;99.90
997;DHT22;487;50.126;8.698;2023-12-07T13:53:40;5.10;99.90
997;DHT22;487;50.126;8.698;2023-12-07T13:56:08;5.20;99.90
997;DHT22;487;50.126;8.698;2023-12-07T13:58:36;5.10;99.90
997;DHT22;487;50.126;8.698;2023-12-07T14:01:07;5.10;99.90
997;DHT22;487;50.126;8.698;2023-12-07T14:03:35;5.00;99.90
997;DHT22;487;50.126;8.698;2023-12-07T14:08:44;5.00;99.90
997;DHT22;487;50.126;8.698;2023-12-07T14:11:12;5.00;99.90
997;DHT22;487;50.126;8.698;2023-12-07T14:13:40;5.00;99.90
997;DHT22;487;50.126;8.698;2023-12-07T14:16:09;5.10;99.90
997;DHT22;487;50.126;8.698;2023-12-07T14:24:11;5.00;99.90
997;DHT22;487;50.126;8.698;2023-12-07T14:26:42;5.00;99.90
997;DHT22;487;50.126;8.698;2023-12-07T14:31:50;5.00;99.90
997;DHT22;487;50.126;8.698;2023-12-07T14:34:18;5.00;99.90
997;DHT22;487;50.126;8.698;2023-12-07T14:39:27;5.00;99.90
997;DHT22;487;50.126;8.698;2023-12-07T14:41:55;5.00;99.90
997;DHT22;487;50.126;8.698;2023-12-07T14:46:57;4.60;99.90
997;DHT22;487;50.126;8.698;2023-12-07T14:49:26;4.60;99.90
997;DHT22;487;50.126;8.698;2023-12-07T14:51:55;4.40;99.90
997;DHT22;487;50.126;8.698;2023-12-07T14:54:26;4.30;99.90
997;DHT22;487;50.126;8.698;2023-12-07T14:56:56;4.30;99.90
997;DHT22;487;50.126;8.698;2023-12-07T15:01:53;4.40;99.90
997;DHT22;487;50.126;8.698;2023-12-07T15:07:00;4.40;99.90
997;DHT22;487;50.126;8.698;2023-12-07T15:09:28;4.50;99.90
997;DHT22;487;50.126;8.698;2023-12-07T15:11:56;4.50;99.90
997;DHT22;487;50.126;8.698;2023-12-07T15:14:25;4.50;99.90
997;DHT22;487;50.126;8.698;2023-12-07T15:17:03;4.60;99.90
997;DHT22;487;50.126;8.698;2023-12-07T15:19:34;4.60;99.90
997;DHT22;487;50.126;8.698;2023-12-07T15:22:03;4.40;99.90
997;DHT22;487;50.126;8.698;2023-12-07T15:24:31;4.40;99.90
997;DHT22;487;50.126;8.698;2023-12-07T15:27:03;4.30;99.90
997;DHT22;487;50.126;8.698;2023-12-07T15:29:32;4.20;99.90
997;DHT22;487;50.126;8.698;2023-12-07T15:32:03;4.00;99.90
997;DHT22;487;50.126;8.698;2023-12-07T15:34:31;4.00;99.90
997;DHT22;487;50.126;8.698;2023-12-07T15:37:08;4.00;99.90
997;DHT22;487;50.126;8.698;2023-12-07T15:39:39;3.90;99.90
997;DHT22;487;50.126;8.698;2023-12-07T15:42:07;3.80;99.90
997;DHT22;487;50.126;8.698;2023-12-07T15:47:04;3.60;99.90
997;DHT22;487;50.126;8.698;2023-12-07T15:49:33;3.60;99.90
997;DHT22;487;50.126;8.698;2023-12-07T15:54:31;3.50;99.90
997;DHT22;487;50.126;8.698;2023-12-07T15:57:06;3.50;99.90
997;DHT22;487;50.126;8.698;2023-12-07T15:59:36;3.50;99.90
997;DHT22;487;50.126;8.698;2023-12-07T16:02:04;3.50;99.90
997;DHT22;487;50.126;8.698;2023-12-07T16:04:32;3.40;99.90
997;DHT22;487;50.126;8.698;2023-12-07T16:07:04;3.40;99.90
997;DHT22;487;50.126;8.698;2023-12-07T16:09:38;3.20;99.90
997;DHT22;487;50.126;8.698;2023-12-07T16:14:36;3.30;99.90
997;DHT22;487;50.126;8.698;2023-12-07T16:17:05;3.30;99.90
997;DHT22;487;50.126;8.698;2023-12-07T16:19:33;3.20;99.90
997;DHT22;487;50.126;8.698;2023-12-07T16:22:01;3.30;99.90
997;DHT22;487;50.126;8.698;2023-12-07T16:24:30;3.30;99.90
997;DHT22;487;50.126;8.698;2023-12-07T16:26:59;3.20;99.90
997;DHT22;487;50.126;8.698;2023-12-07T16:32:01;3.20;99.90
997;DHT22;487;50.126;8.698;2023-12-07T16:34:29;3.20;99.90
997;DHT22;487;50.126;8.698;2023-12-07T16:39:26;3.00;99.90
997;DHT22;487;50.126;8.698;2023-12-07T16:44:30;3.20;99.90
997;DHT22;487;50.126;8.698;2023-12-07T16:46:58;3.10;99.90
997;DHT22;487;50.126;8.698;2023-12-07T16:49:26;3.10;99.90
997;DHT22;487;50.126;8.698;2023-12-07T16:51:55;3.20;99.90
997;DHT22;487;50.126;8.698;2023-12-07T16:54:23;3.20;99.90
997;DHT22;487;50.126;8.698;2023-12-07T16:56:51;3.30;99.90
997;DHT22;487;50.126;8.698;2023-12-07T16:59:19;3.30;99.90
997;DHT22;487;50.126;8.698;2023-12-07T17:01:49;3.30;99.90
997;DHT22;487;50.126;8.698;2023-12-07T17:04:17;3.30;99.90
997;DHT22;487;50.126;8.698;2023-12-07T17:06:46;3.20;99.90
997;DHT22;487;50.126;8.698;2023-12-07T17:09:23;3.20;99.90
997;DHT22;487;50.126;8.698;2023-12-07T17:11:51;3.10;99.90
997;DHT22;487;50.126;8.698;2023-12-07T17:14:20;3.10;99.90
997;DHT22;487;50.126;8.698;2023-12-07T17:16:49;3.10;99.90
997;DHT22;487;50.126;8.698;2023-12-07T17:19:18;3.00;99.90
997;DHT22;487;50.126;8.698;2023-12-07T17:21:46;3.00;99.90
997;DHT22;487;50.126;8.698;2023-12-07T17:24:18;3.00;99.90
997;DHT22;487;50.126;8.698;2023-12-07T17:26:46;3.00;99.90
997;DHT22;487;50.126;8.698;2023-12-07T17:29:20;3.00;99.90
997;DHT22;487;50.126;8.698;2023-12-07T17:31:49;3.00;99.90
997;DHT22;487;50.126;8.698;2023-12-07T17:34:17;3.00;99.90
997;DHT22;487;50.126;8.698;2023-12-07T17:36:46;2.90;99.90
997;DHT22;487;50.126;8.698;2023-12-07T17:39:14;2.90;99.90
997;DHT22;487;50.126;8.698;2023-12-07T17:41:42;2.80;99.90
997;DHT22;487;50.126;8.698;2023-12-07T17:44:10;2.80;99.90
997;DHT22;487;50.126;8.698;2023-12-07T17:46:38;2.70;99.90
997;DHT22;487;50.126;8.698;2023-12-07T17:49:07;2.70;99.90
997;DHT22;487;50.126;8.698;2023-12-07T17:51:36;2.70;99.90
997;DHT22;487;50.126;8.698;2023-12-07T17:54:04;2.60;99.90
997;DHT22;487;50.126;8.698;2023-12-07T17:56:32;2.60;99.90
997;DHT22;487;50.126;8.698;2023-12-07T17:59:00;2.60;99.90
997;DHT22;487;50.126;8.698;2023-12-07T18:01:29;2.50;99.90
997;DHT22;487;50.126;8.698;2023-12-07T18:03:57;2.50;99.90
997;DHT22;487;50.126;8.698;2023-12-07T18:06:27;2.60;99.90
997;DHT22;487;50.126;8.698;2023-12-07T18:08:55;2.60;99.90
997;DHT22;487;50.126;8.698;2023-12-07T18:11:24;2.60;99.90
997;DHT22;487;50.126;8.698;2023-12-07T18:13:52;2.60;99.90
997;DHT22;487;50.126;8.698;2023-12-07T18:16:20;2.60;99.90
997;DHT22;487;50.126;8.698;2023-12-07T18:18:50;2.60;99.90
997;DHT22;487;50.126;8.698;2023-12-07T18:23:48;2.40;99.90
997;DHT22;487;50.126;8.698;2023-12-07T18:26:16;5.70;99.90
997;DHT22;487;50.126;8.698;2023-12-07T18:28:44;2.60;99.90
997;DHT22;487;50.126;8.698;2023-12-07T18:31:12;2.60;99.90
997;DHT22;487;50.126;8.698;2023-12-07T18:36:09;2.60;99.90
997;DHT22;487;50.126;8.698;2023-12-07T18:38:37;2.60;99.90
997;DHT22;487;50.126;8.698;2023-12-07T18:41:06;2.60;99.90
997;DHT22;487;50.126;8.698;2023-12-07T18:43:34;2.70;99.90
997;DHT22;487;50.126;8.698;2023-12-07T18:48:32;0.10;99.90
997;DHT22;487;50.126;8.698;2023-12-07T18:51:01;2.60;99.90
997;DHT22;487;50.126;8.698;2023-12-07T18:58:28;2.40;99.90
997;DHT22;487;50.126;8.698;2023-12-07T19:00:56;2.40;99.90
997;DHT22;487;50.126;8.698;2023-12-07T19:03:25;2.50;99.90
997;DHT22;487;50.126;8.698;2023-12-07T19:05:52;2.40;99.90
997;DHT22;487;50.126;8.698;2023-12-07T19:08:21;2.30;99.90
997;DHT22;487;50.126;8.698;2023-12-07T19:10:49;2.30;99.90
997;DHT22;487;50.126;8.698;2023-12-07T19:13:17;2.30;99.90
997;DHT22;487;50.126;8.698;2023-12-07T19:15:46;2.30;99.90
997;DHT22;487;50.126;8.698;2023-12-07T19:18:15;2.30;99.90
997;DHT22;487;50.126;8.698;2023-12-07T19:20:44;2.30;99.90
997;DHT22;487;50.126;8.698;2023-12-07T19:25:40;2.20;99.90
997;DHT22;487;50.126;8.698;2023-12-07T19:28:08;2.20;99.90
997;DHT22;487;50.126;8.698;2023-12-07T19:30:36;2.20;99.90
997;DHT22;487;50.126;8.698;2023-12-07T19:33:05;2.20;99.90
997;DHT22;487;50.126;8.698;2023-12-07T19:38:03;2.30;99.90
997;DHT22;487;50.126;8.698;2023-12-07T19:45:28;2.20;99.90
997;DHT22;487;50.126;8.698;2023-12-07T19:47:56;2.30;99.90
997;DHT22;487;50.126;8.698;2023-12-07T19:52:55;2.30;99.90
997;DHT22;487;50.126;8.698;2023-12-07T19:55:23;2.20;99.90
997;DHT22;487;50.126;8.698;2023-12-07T19:57:52;2.30;99.90
997;DHT22;487;50.126;8.698;2023-12-07T20:00:19;2.20;99.90
997;DHT22;487;50.126;8.698;2023-12-07T20:02:48;2.20;99.90
997;DHT22;487;50.126;8.698;2023-12-07T20:05:17;2.20;99.90
997;DHT22;487;50.126;8.698;2023-12-07T20:07:46;2.30;99.90
997;DHT22;487;50.126;8.698;2023-12-07T20:10:18;2.20;99.90
997;DHT22;487;50.126;8.698;2023-12-07T20:12:48;2.10;99.90
997;DHT22;487;50.126;8.698;2023-12-07T20:15:16;2.10;99.90
997;DHT22;487;50.126;8.698;2023-12-07T20:17:44;2.10;99.90
997;DHT22;487;50.126;8.698;2023-12-07T20:22:41;2.10;99.90
997;DHT22;487;50.126;8.698;2023-12-07T20:25:10;2.10;99.90
997;DHT22;487;50.126;8.698;2023-12-07T20:27:38;2.20;99.90
997;DHT22;487;50.126;8.698;2023-12-07T20:30:07;2.20;99.90
997;DHT22;487;50.126;8.698;2023-12-07T20:32:35;2.20;99.90
997;DHT22;487;50.126;8.698;2023-12-07T20:35:04;2.20;99.90
997;DHT22;487;50.126;8.698;2023-12-07T20:37:32;2.30;99.90
997;DHT22;487;50.126;8.698;2023-12-07T20:40:00;2.30;99.90
997;DHT22;487;50.126;8.698;2023-12-07T20:42:30;2.30;99.90
997;DHT22;487;50.126;8.698;2023-12-07T20:44:58;2.30;99.90